sensor_id;sensor_type;location;lat;lon;timestamp;temperature;humidity
4904;DHT22;2467;48.142;11.616;2023-05-10T00:00:17;14.30;99.90
4904;DHT22;2467;48.142;11.616;2023-05-10T00:00:49;14.30;99.90
4904;DHT22;2467;48.142;11.616;2023-05-10T00:01:21;14.30;99.90
4904;DHT22;2467;48.142;11.616;2023-05-10T00:01:54;14.30;99.90
4904;DHT22;2467;48.142;11.616;2023-05-10T00:02:26;14.30;99.90
4904;DHT22;2467;48.142;11.616;2023-05-10T00:02:58;14.30;99.90
4904;DHT22;2467;48.142;11.616;2023-05-10T00:03:31;14.30;99.90
4904;DHT22;2467;48.142;11.616;2023-05-10T00:04:03;14.30;99.90
4904;DHT22;2467;48.142;11.616;2023-05-10T00:04:35;14.30;99.90
4904;DHT22;2467;48.142;11.616;2023-05-10T00:05:08;14.30;99.90
4904;DHT22;2467;48.142;11.616;2023-05-10T00:05:40;14.30;99.90
4904;DHT22;2467;48.142;11.616;2023-05-10T00:06:12;14.30;99.90
4904;DHT22;2467;48.142;11.616;2023-05-10T00:06:45;14.40;99.90
4904;DHT22;2467;48.142;11.616;2023-05-10T00:07:17;14.40;99.90
4904;DHT22;2467;48.142;11.616;2023-05-10T00:07:48;14.40;99.90
4904;DHT22;2467;48.142;11.616;2023-05-10T00:08:21;14.40;99.90
4904;DHT22;2467;48.142;11.616;2023-05-10T00:08:53;14.40;99.90
4904;DHT22;2467;48.142;11.616;2023-05-10T00:09:25;14.40;99.90
4904;DHT22;2467;48.142;11.616;2023-05-10T00:09:58;14.40;99.90
4904;DHT22;2467;48.142;11.616;2023-05-10T00:10:30;14.40;99.90
4904;DHT22;2467;48.142;11.616;2023-05-10T00:11:02;14.40;99.90
4904;DHT22;2467;48.142;11.616;2023-05-10T00:11:34;14.40;99.90
4904;DHT22;2467;48.142;11.616;2023-05-10T00:12:06;14.30;99.90
4904;DHT22;2467;48.142;11.616;2023-05-10T00:12:38;14.30;99.90
4904;DHT22;2467;48.142;11.616;2023-05-10T00:13:11;14.30;99.90
4904;DHT22;2467;48.142;11.616;2023-05-10T00:13:43;14.40;99.90
4904;DHT22;2467;48.142;11.616;2023-05-10T00:14:15;14.40;99.90
4904;DHT22;2467;48.142;11.616;2023-05-10T00:14:48;14.40;99.90
4904;DHT22;2467;48.142;11.616;2023-05-10T00:15:21;14.40;99.90
4904;DHT22;2467;48.142;11.616;2023-05-10T00:15:53;14.40;99.90
4904;DHT22;2467;48.142;11.616;2023-05-10T00:16:26;14.50;99.90
4904;DHT22;2467;48.142;11.616;2023-05-10T00:16:58;14.50;99.90
4904;DHT22;2467;48.142;11.616;2023-05-10T00:17:30;14.50;99.90
4904;DHT22;2467;48.142;11.616;2023-05-10T00:18:02;14.50;99.90
4904;DHT22;2467;48.142;11.616;2023-05-10T00:18:34;14.50;99.90
4904;DHT22;2467;48.142;11.616;2023-05-10T00:19:06;14.50;99.90
4904;DHT22;2467;48.142;11.616;2023-05-10T00:19:39;14.50;99.90
4904;DHT22;2467;48.142;11.616;2023-05-10T00:20:11;14.50;99.90
4904;DHT22;2467;48.142;11.616;2023-05-10T00:20:43;14.50;99.90
4904;DHT22;2467;48.142;11.616;2023-05-10T00:21:17;14.50;99.90
4904;DHT22;2467;48.142;11.616;2023-05-10T00:21:50;14.50;99.90
4904;DHT22;2467;48.142;11.616;2023-05-10T00:22:22;14.50;99.90
4904;DHT22;2467;48.142;11.616;2023-05-10T00:22:53;14.50;99.90
4904;DHT22;2467;48.142;11.616;2023-05-10T00:23:25;14.50;99.90
4904;DHT22;2467;48.142;11.616;2023-05-10T00:23:58;14.50;99.90
4904;DHT22;2467;48.142;11.616;2023-05-10T00:24:30;14.50;99.90
4904;DHT22;2467;48.142;11.616;2023-05-10T00:25:02;14.40;99.90
4904;DHT22;2467;48.142;11.616;2023-05-10T00:25:35;14.40;99.90
4904;DHT22;2467;48.142;11.616;2023-05-10T00:26:07;14.40;99.90
4904;DHT22;2467;48.142;11.616;2023-05-10T00:26:38;14.50;99.90
4904;DHT22;2467;48.142;11.616;2023-05-10T00:27:12;14.50;99.90
4904;DHT22;2467;48.142;11.616;2023-05-10T00:27:44;14.50;99.90
4904;DHT22;2467;48.142;11.616;2023-05-10T00:28:16;14.50;99.90
4904;DHT22;2467;48.142;11.616;2023-05-10T00:28:48;14.50;99.90
4904;DHT22;2467;48.142;11.616;2023-05-10T00:29:20;14.50;99.90
4904;DHT22;2467;48.142;11.616;2023-05-10T00:29:52;14.50;99.90
4904;DHT22;2467;48.142;11.616;2023-05-10T00:30:26;14.50;99.90
4904;DHT22;2467;48.142;11.616;2023-05-10T00:30:58;14.50;99.90
4904;DHT22;2467;48.142;11.616;2023-05-10T00:31:30;14.50;99.90
4904;DHT22;2467;48.142;11.616;2023-05-10T00:32:03;14.60;99.90
4904;DHT22;2467;48.142;11.616;2023-05-10T00:32:35;14.60;99.90
4904;DHT22;2467;48.142;11.616;2023-05-10T00:33:07;14.60;99.90
4904;DHT22;2467;48.142;11.616;2023-05-10T00:33:39;14.60;99.90
4904;DHT22;2467;48.142;11.616;2023-05-10T00:34:12;14.60;99.90
4904;DHT22;2467;48.142;11.616;2023-05-10T00:34:44;14.60;99.90
4904;DHT22;2467;48.142;11.616;2023-05-10T00:35:16;14.60;99.90
4904;DHT22;2467;48.142;11.616;2023-05-10T00:35:49;14.60;99.90
4904;DHT22;2467;48.142;11.616;2023-05-10T00:36:20;14.60;99.90
4904;DHT22;2467;48.142;11.616;2023-05-10T00:36:52;14.60;99.90
4904;DHT22;2467;48.142;11.616;2023-05-10T00:37:25;14.60;99.90
4904;DHT22;2467;48.142;11.616;2023-05-10T00:37:57;14.60;99.90
4904;DHT22;2467;48.142;11.616;2023-05-10T00:38:29;14.60;99.90
4904;DHT22;2467;48.142;11.616;2023-05-10T00:39:02;14.60;99.90
4904;DHT22;2467;48.142;11.616;2023-05-10T00:39:35;14.50;99.90
4904;DHT22;2467;48.142;11.616;2023-05-10T00:40:07;14.60;99.90
4904;DHT22;2467;48.142;11.616;2023-05-10T00:40:40;14.60;99.90
4904;DHT22;2467;48.142;11.616;2023-05-10T00:41:12;14.50;99.90
4904;DHT22;2467;48.142;11.616;2023-05-10T00:41:44;14.50;99.90
4904;DHT22;2467;48.142;11.616;2023-05-10T00:42:17;14.50;99.90
4904;DHT22;2467;48.142;11.616;2023-05-10T00:42:49;14.50;99.90
4904;DHT22;2467;48.142;11.616;2023-05-10T00:43:20;14.50;99.90
4904;DHT22;2467;48.142;11.616;2023-05-10T00:43:53;14.50;99.90
4904;DHT22;2467;48.142;11.616;2023-05-10T00:44:25;14.50;99.90
4904;DHT22;2467;48.142;11.616;2023-05-10T00:44:57;14.50;99.90
4904;DHT22;2467;48.142;11.616;2023-05-10T00:45:31;14.50;99.90
4904;DHT22;2467;48.142;11.616;2023-05-10T00:46:05;14.40;99.90
4904;DHT22;2467;48.142;11.616;2023-05-10T00:46:37;14.40;99.90
4904;DHT22;2467;48.142;11.616;2023-05-10T00:47:09;14.40;99.90
4904;DHT22;2467;48.142;11.616;2023-05-10T00:47:43;14.30;99.90
4904;DHT22;2467;48.142;11.616;2023-05-10T00:48:15;14.40;99.90
4904;DHT22;2467;48.142;11.616;2023-05-10T00:48:47;14.40;99.90
4904;DHT22;2467;48.142;11.616;2023-05-10T00:49:20;14.40;99.90
4904;DHT22;2467;48.142;11.616;2023-05-10T00:49:52;14.40;99.90
4904;DHT22;2467;48.142;11.616;2023-05-10T00:50:24;14.40;99.90
4904;DHT22;2467;48.142;11.616;2023-05-10T00:50:57;14.40;99.90
4904;DHT22;2467;48.142;11.616;2023-05-10T00:51:29;14.40;99.90
4904;DHT22;2467;48.142;11.616;2023-05-10T00:52:03;14.40;99.90
4904;DHT22;2467;48.142;11.616;2023-05-10T00:52:36;14.40;99.90
4904;DHT22;2467;48.142;11.616;2023-05-10T00:53:08;14.40;99.90
4904;DHT22;2467;48.142;11.616;2023-05-10T00:53:40;14.40;99.90
4904;DHT22;2467;48.142;11.616;2023-05-10T00:54:14;14.40;99.90
4904;DHT22;2467;48.142;11.616;2023-05-10T00:54:47;14.40;99.90
4904;DHT22;2467;48.142;11.616;2023-05-10T00:55:19;14.40;99.90
4904;DHT22;2467;48.142;11.616;2023-05-10T00:55:53;14.40;99.90
4904;DHT22;2467;48.142;11.616;2023-05-10T00:56:25;14.40;99.90
4904;DHT22;2467;48.142;11.616;2023-05-10T00:56:58;14.40;99.90
4904;DHT22;2467;48.142;11.616;2023-05-10T00:57:31;14.40;99.90
4904;DHT22;2467;48.142;11.616;2023-05-10T00:58:03;14.40;99.90
4904;DHT22;2467;48.142;11.616;2023-05-10T00:58:35;14.30;99.90
4904;DHT22;2467;48.142;11.616;2023-05-10T00:59:09;14.30;99.90
4904;DHT22;2467;48.142;11.616;2023-05-10T00:59:41;14.30;99.90
4904;DHT22;2467;48.142;11.616;2023-05-10T01:00:13;14.30;99.90
4904;DHT22;2467;48.142;11.616;2023-05-10T01:00:51;14.30;99.90
4904;DHT22;2467;48.142;11.616;2023-05-10T01:01:23;14.30;99.90
4904;DHT22;2467;48.142;11.616;2023-05-10T01:01:56;14.30;99.90
4904;DHT22;2467;48.142;11.616;2023-05-10T01:02:30;14.30;99.90
4904;DHT22;2467;48.142;11.616;2023-05-10T01:03:02;14.20;99.90
4904;DHT22;2467;48.142;11.616;2023-05-10T01:03:35;14.20;99.90
4904;DHT22;2467;48.142;11.616;2023-05-10T01:04:09;14.20;99.90
4904;DHT22;2467;48.142;11.616;2023-05-10T01:04:43;14.20;99.90
4904;DHT22;2467;48.142;11.616;2023-05-10T01:05:15;14.20;99.90
4904;DHT22;2467;48.142;11.616;2023-05-10T01:05:48;14.20;99.90
4904;DHT22;2467;48.142;11.616;2023-05-10T01:06:19;14.20;99.90
4904;DHT22;2467;48.142;11.616;2023-05-10T01:06:52;14.20;99.90
4904;DHT22;2467;48.142;11.616;2023-05-10T01:07:25;14.20;99.90
4904;DHT22;2467;48.142;11.616;2023-05-10T01:07:57;14.20;99.90
4904;DHT22;2467;48.142;11.616;2023-05-10T01:08:29;14.20;99.90
4904;DHT22;2467;48.142;11.616;2023-05-10T01:09:02;14.20;99.90
4904;DHT22;2467;48.142;11.616;2023-05-10T01:09:33;14.20;99.90
4904;DHT22;2467;48.142;11.616;2023-05-10T01:10:06;14.20;99.90
4904;DHT22;2467;48.142;11.616;2023-05-10T01:10:40;14.20;99.90
4904;DHT22;2467;48.142;11.616;2023-05-10T01:11:12;14.20;99.90
4904;DHT22;2467;48.142;11.616;2023-05-10T01:11:44;14.20;99.90
4904;DHT22;2467;48.142;11.616;2023-05-10T01:12:17;14.20;99.90
4904;DHT22;2467;48.142;11.616;2023-05-10T01:12:49;14.20;99.90
4904;DHT22;2467;48.142;11.616;2023-05-10T01:13:30;14.20;99.90
4904;DHT22;2467;48.142;11.616;2023-05-10T01:14:05;14.20;99.90
4904;DHT22;2467;48.142;11.616;2023-05-10T01:14:37;14.20;99.90
4904;DHT22;2467;48.142;11.616;2023-05-10T01:15:10;14.20;99.90
4904;DHT22;2467;48.142;11.616;2023-05-10T01:15:44;14.10;99.90
4904;DHT22;2467;48.142;11.616;2023-05-10T01:16:17;14.10;99.90
4904;DHT22;2467;48.142;11.616;2023-05-10T01:16:50;14.10;99.90
4904;DHT22;2467;48.142;11.616;2023-05-10T01:17:23;14.10;99.90
4904;DHT22;2467;48.142;11.616;2023-05-10T01:17:55;14.10;99.90
4904;DHT22;2467;48.142;11.616;2023-05-10T01:18:29;14.10;99.90
4904;DHT22;2467;48.142;11.616;2023-05-10T01:19:02;14.20;99.90
4904;DHT22;2467;48.142;11.616;2023-05-10T01:19:35;14.10;99.90
4904;DHT22;2467;48.142;11.616;2023-05-10T01:20:10;14.10;99.90
4904;DHT22;2467;48.142;11.616;2023-05-10T01:20:48;14.10;99.90
4904;DHT22;2467;48.142;11.616;2023-05-10T01:21:27;14.10;99.90
4904;DHT22;2467;48.142;11.616;2023-05-10T01:22:16;14.20;99.90
4904;DHT22;2467;48.142;11.616;2023-05-10T01:23:22;14.10;99.90
4904;DHT22;2467;48.142;11.616;2023-05-10T01:25:22;14.00;99.90
4904;DHT22;2467;48.142;11.616;2023-05-10T01:26:17;14.00;99.90
4904;DHT22;2467;48.142;11.616;2023-05-10T01:27:07;14.00;99.90
4904;DHT22;2467;48.142;11.616;2023-05-10T01:28:06;14.00;99.90
4904;DHT22;2467;48.142;11.616;2023-05-10T01:29:53;14.00;99.90
4904;DHT22;2467;48.142;11.616;2023-05-10T01:31:08;14.00;99.90
4904;DHT22;2467;48.142;11.616;2023-05-10T01:32:15;13.90;99.90
4904;DHT22;2467;48.142;11.616;2023-05-10T01:32:51;13.90;99.90
4904;DHT22;2467;48.142;11.616;2023-05-10T01:33:32;13.90;99.90
4904;DHT22;2467;48.142;11.616;2023-05-10T01:34:08;14.00;99.90
4904;DHT22;2467;48.142;11.616;2023-05-10T01:34:46;14.00;99.90
4904;DHT22;2467;48.142;11.616;2023-05-10T01:35:25;14.00;99.90
4904;DHT22;2467;48.142;11.616;2023-05-10T01:36:05;14.00;99.90
4904;DHT22;2467;48.142;11.616;2023-05-10T01:36:43;14.00;99.90
4904;DHT22;2467;48.142;11.616;2023-05-10T01:37:21;14.00;99.90
4904;DHT22;2467;48.142;11.616;2023-05-10T01:38:02;14.00;99.90
4904;DHT22;2467;48.142;11.616;2023-05-10T01:38:42;14.10;99.90
4904;DHT22;2467;48.142;11.616;2023-05-10T01:39:19;14.10;99.90
4904;DHT22;2467;48.142;11.616;2023-05-10T01:40:00;14.10;99.90
4904;DHT22;2467;48.142;11.616;2023-05-10T01:40:37;14.10;99.90
4904;DHT22;2467;48.142;11.616;2023-05-10T01:41:16;14.10;99.90
4904;DHT22;2467;48.142;11.616;2023-05-10T01:41:52;14.10;99.90
4904;DHT22;2467;48.142;11.616;2023-05-10T01:42:28;14.10;99.90
4904;DHT22;2467;48.142;11.616;2023-05-10T01:43:10;14.20;99.90
4904;DHT22;2467;48.142;11.616;2023-05-10T01:43:51;14.20;99.90
4904;DHT22;2467;48.142;11.616;2023-05-10T01:44:31;14.20;99.90
4904;DHT22;2467;48.142;11.616;2023-05-10T01:45:13;14.20;99.90
4904;DHT22;2467;48.142;11.616;2023-05-10T01:45:53;14.10;99.90
4904;DHT22;2467;48.142;11.616;2023-05-10T01:46:33;14.20;99.90
4904;DHT22;2467;48.142;11.616;2023-05-10T01:47:10;14.10;99.90
4904;DHT22;2467;48.142;11.616;2023-05-10T01:47:46;14.10;99.90
4904;DHT22;2467;48.142;11.616;2023-05-10T01:48:23;14.20;99.90
4904;DHT22;2467;48.142;11.616;2023-05-10T01:48:59;14.10;99.90
4904;DHT22;2467;48.142;11.616;2023-05-10T01:49:34;14.10;99.90
4904;DHT22;2467;48.142;11.616;2023-05-10T01:50:14;14.10;99.90
4904;DHT22;2467;48.142;11.616;2023-05-10T01:50:48;14.10;99.90
4904;DHT22;2467;48.142;11.616;2023-05-10T01:51:24;14.10;99.90
4904;DHT22;2467;48.142;11.616;2023-05-10T01:52:02;14.10;99.90
4904;DHT22;2467;48.142;11.616;2023-05-10T01:52:42;14.10;99.90
4904;DHT22;2467;48.142;11.616;2023-05-10T01:53:18;14.00;99.90
4904;DHT22;2467;48.142;11.616;2023-05-10T01:53:53;14.00;99.90
4904;DHT22;2467;48.142;11.616;2023-05-10T01:54:28;14.00;99.90
4904;DHT22;2467;48.142;11.616;2023-05-10T01:55:02;14.00;99.90
4904;DHT22;2467;48.142;11.616;2023-05-10T01:55:41;13.90;99.90
4904;DHT22;2467;48.142;11.616;2023-05-10T01:56:16;13.90;99.90
4904;DHT22;2467;48.142;11.616;2023-05-10T01:56:56;13.90;99.90
4904;DHT22;2467;48.142;11.616;2023-05-10T01:57:34;13.90;99.90
4904;DHT22;2467;48.142;11.616;2023-05-10T01:58:09;13.90;99.90
4904;DHT22;2467;48.142;11.616;2023-05-10T01:58:44;13.90;99.90
4904;DHT22;2467;48.142;11.616;2023-05-10T01:59:19;13.90;99.90
4904;DHT22;2467;48.142;11.616;2023-05-10T01:59:52;13.90;99.90
4904;DHT22;2467;48.142;11.616;2023-05-10T02:00:25;14.00;99.90
4904;DHT22;2467;48.142;11.616;2023-05-10T02:01:01;14.10;99.90
4904;DHT22;2467;48.142;11.616;2023-05-10T02:01:36;14.00;99.90
4904;DHT22;2467;48.142;11.616;2023-05-10T02:02:11;14.00;99.90
4904;DHT22;2467;48.142;11.616;2023-05-10T02:02:47;14.00;99.90
4904;DHT22;2467;48.142;11.616;2023-05-10T02:03:22;14.00;99.90
4904;DHT22;2467;48.142;11.616;2023-05-10T02:03:57;14.10;99.90
4904;DHT22;2467;48.142;11.616;2023-05-10T02:04:29;14.10;99.90
4904;DHT22;2467;48.142;11.616;2023-05-10T02:05:02;14.10;99.90
4904;DHT22;2467;48.142;11.616;2023-05-10T02:05:36;14.10;99.90
4904;DHT22;2467;48.142;11.616;2023-05-10T02:06:10;14.10;99.90
4904;DHT22;2467;48.142;11.616;2023-05-10T02:06:45;14.10;99.90
4904;DHT22;2467;48.142;11.616;2023-05-10T02:07:19;14.10;99.90
4904;DHT22;2467;48.142;11.616;2023-05-10T02:07:53;14.10;99.90
4904;DHT22;2467;48.142;11.616;2023-05-10T02:08:25;14.20;99.90
4904;DHT22;2467;48.142;11.616;2023-05-10T02:08:57;14.20;99.90
4904;DHT22;2467;48.142;11.616;2023-05-10T02:09:30;14.20;99.90
4904;DHT22;2467;48.142;11.616;2023-05-10T02:10:06;14.20;99.90
4904;DHT22;2467;48.142;11.616;2023-05-10T02:10:39;14.20;99.90
4904;DHT22;2467;48.142;11.616;2023-05-10T02:11:13;14.20;99.90
4904;DHT22;2467;48.142;11.616;2023-05-10T02:11:45;14.20;99.90
4904;DHT22;2467;48.142;11.616;2023-05-10T02:12:19;14.30;99.90
4904;DHT22;2467;48.142;11.616;2023-05-10T02:12:53;14.20;99.90
4904;DHT22;2467;48.142;11.616;2023-05-10T02:13:27;14.20;99.90
4904;DHT22;2467;48.142;11.616;2023-05-10T02:14:00;14.20;99.90
4904;DHT22;2467;48.142;11.616;2023-05-10T02:14:35;14.20;99.90
4904;DHT22;2467;48.142;11.616;2023-05-10T02:15:08;14.20;99.90
4904;DHT22;2467;48.142;11.616;2023-05-10T02:15:43;14.20;99.90
4904;DHT22;2467;48.142;11.616;2023-05-10T02:16:17;14.20;99.90
4904;DHT22;2467;48.142;11.616;2023-05-10T02:16:51;14.30;99.90
4904;DHT22;2467;48.142;11.616;2023-05-10T02:17:25;14.30;99.90
4904;DHT22;2467;48.142;11.616;2023-05-10T02:18:00;14.30;99.90
4904;DHT22;2467;48.142;11.616;2023-05-10T02:18:34;14.20;99.90
4904;DHT22;2467;48.142;11.616;2023-05-10T02:19:07;14.30;99.90
4904;DHT22;2467;48.142;11.616;2023-05-10T02:19:41;14.30;99.90
4904;DHT22;2467;48.142;11.616;2023-05-10T02:20:16;14.30;99.90
4904;DHT22;2467;48.142;11.616;2023-05-10T02:20:51;14.30;99.90
4904;DHT22;2467;48.142;11.616;2023-05-10T02:21:26;14.20;99.90
4904;DHT22;2467;48.142;11.616;2023-05-10T02:21:59;14.30;99.90
4904;DHT22;2467;48.142;11.616;2023-05-10T02:22:32;14.30;99.90
4904;DHT22;2467;48.142;11.616;2023-05-10T02:23:07;14.30;99.90
4904;DHT22;2467;48.142;11.616;2023-05-10T02:23:40;14.30;99.90
4904;DHT22;2467;48.142;11.616;2023-05-10T02:24:13;14.30;99.90
4904;DHT22;2467;48.142;11.616;2023-05-10T02:24:47;14.30;99.90
4904;DHT22;2467;48.142;11.616;2023-05-10T02:25:22;14.30;99.90
4904;DHT22;2467;48.142;11.616;2023-05-10T02:25:55;14.30;99.90
4904;DHT22;2467;48.142;11.616;2023-05-10T02:26:29;14.20;99.90
4904;DHT22;2467;48.142;11.616;2023-05-10T02:27:02;14.30;99.90
4904;DHT22;2467;48.142;11.616;2023-05-10T02:27:35;14.30;99.90
4904;DHT22;2467;48.142;11.616;2023-05-10T02:28:10;14.20;99.90
4904;DHT22;2467;48.142;11.616;2023-05-10T02:28:43;14.20;99.90
4904;DHT22;2467;48.142;11.616;2023-05-10T02:29:17;14.20;99.90
4904;DHT22;2467;48.142;11.616;2023-05-10T02:29:51;14.20;99.90
4904;DHT22;2467;48.142;11.616;2023-05-10T02:30:24;14.20;99.90
4904;DHT22;2467;48.142;11.616;2023-05-10T02:30:57;14.30;99.90
4904;DHT22;2467;48.142;11.616;2023-05-10T02:31:30;14.30;99.90
4904;DHT22;2467;48.142;11.616;2023-05-10T02:32:04;14.30;99.90
4904;DHT22;2467;48.142;11.616;2023-05-10T02:32:36;14.30;99.90
4904;DHT22;2467;48.142;11.616;2023-05-10T02:33:11;14.30;99.90
4904;DHT22;2467;48.142;11.616;2023-05-10T02:33:44;14.30;99.90
4904;DHT22;2467;48.142;11.616;2023-05-10T02:34:17;14.30;99.90
4904;DHT22;2467;48.142;11.616;2023-05-10T02:34:52;14.20;99.90
4904;DHT22;2467;48.142;11.616;2023-05-10T02:35:26;14.30;99.90
4904;DHT22;2467;48.142;11.616;2023-05-10T02:35:58;14.30;99.90
4904;DHT22;2467;48.142;11.616;2023-05-10T02:36:32;14.30;99.90
4904;DHT22;2467;48.142;11.616;2023-05-10T02:37:04;14.30;99.90
4904;DHT22;2467;48.142;11.616;2023-05-10T02:37:38;14.30;99.90
4904;DHT22;2467;48.142;11.616;2023-05-10T02:38:11;14.30;99.90
4904;DHT22;2467;48.142;11.616;2023-05-10T02:38:45;14.30;99.90
4904;DHT22;2467;48.142;11.616;2023-05-10T02:39:18;14.30;99.90
4904;DHT22;2467;48.142;11.616;2023-05-10T02:39:53;14.30;99.90
4904;DHT22;2467;48.142;11.616;2023-05-10T02:40:26;14.30;99.90
4904;DHT22;2467;48.142;11.616;2023-05-10T02:40:59;14.30;99.90
4904;DHT22;2467;48.142;11.616;2023-05-10T02:41:33;14.30;99.90
4904;DHT22;2467;48.142;11.616;2023-05-10T02:42:05;14.30;99.90
4904;DHT22;2467;48.142;11.616;2023-05-10T02:42:37;14.30;99.90
4904;DHT22;2467;48.142;11.616;2023-05-10T02:43:12;14.20;99.90
4904;DHT22;2467;48.142;11.616;2023-05-10T02:43:47;14.30;99.90
4904;DHT22;2467;48.142;11.616;2023-05-10T02:44:22;14.20;99.90
4904;DHT22;2467;48.142;11.616;2023-05-10T02:45:00;14.30;99.90
4904;DHT22;2467;48.142;11.616;2023-05-10T02:45:34;14.20;99.90
4904;DHT22;2467;48.142;11.616;2023-05-10T02:46:07;14.20;99.90
4904;DHT22;2467;48.142;11.616;2023-05-10T02:46:39;14.20;99.90
4904;DHT22;2467;48.142;11.616;2023-05-10T02:47:10;14.20;99.90
4904;DHT22;2467;48.142;11.616;2023-05-10T02:47:43;14.20;99.90
4904;DHT22;2467;48.142;11.616;2023-05-10T02:48:17;14.20;99.90
4904;DHT22;2467;48.142;11.616;2023-05-10T02:48:49;14.20;99.90
4904;DHT22;2467;48.142;11.616;2023-05-10T02:49:22;14.20;99.90
4904;DHT22;2467;48.142;11.616;2023-05-10T02:49:54;14.20;99.90
4904;DHT22;2467;48.142;11.616;2023-05-10T02:50:27;14.20;99.90
4904;DHT22;2467;48.142;11.616;2023-05-10T02:51:04;14.30;99.90
4904;DHT22;2467;48.142;11.616;2023-05-10T02:51:41;14.20;99.90
4904;DHT22;2467;48.142;11.616;2023-05-10T02:52:16;14.20;99.90
4904;DHT22;2467;48.142;11.616;2023-05-10T02:52:52;14.20;99.90
4904;DHT22;2467;48.142;11.616;2023-05-10T02:53:31;14.20;99.90
4904;DHT22;2467;48.142;11.616;2023-05-10T02:54:09;14.20;99.90
4904;DHT22;2467;48.142;11.616;2023-05-10T02:54:45;14.20;99.90
4904;DHT22;2467;48.142;11.616;2023-05-10T02:55:20;14.20;99.90
4904;DHT22;2467;48.142;11.616;2023-05-10T02:55:57;14.20;99.90
4904;DHT22;2467;48.142;11.616;2023-05-10T02:56:33;14.20;99.90
4904;DHT22;2467;48.142;11.616;2023-05-10T02:57:06;14.20;99.90
4904;DHT22;2467;48.142;11.616;2023-05-10T02:57:43;14.20;99.90
4904;DHT22;2467;48.142;11.616;2023-05-10T02:58:16;14.20;99.90
4904;DHT22;2467;48.142;11.616;2023-05-10T02:58:50;14.20;99.90
4904;DHT22;2467;48.142;11.616;2023-05-10T02:59:23;14.20;99.90
4904;DHT22;2467;48.142;11.616;2023-05-10T02:59:55;14.20;99.90
4904;DHT22;2467;48.142;11.616;2023-05-10T03:00:27;14.20;99.90
4904;DHT22;2467;48.142;11.616;2023-05-10T03:01:00;14.20;99.90
4904;DHT22;2467;48.142;11.616;2023-05-10T03:01:32;14.20;99.90
4904;DHT22;2467;48.142;11.616;2023-05-10T03:02:05;14.20;99.90
4904;DHT22;2467;48.142;11.616;2023-05-10T03:02:37;14.30;99.90
4904;DHT22;2467;48.142;11.616;2023-05-10T03:03:09;14.30;99.90
4904;DHT22;2467;48.142;11.616;2023-05-10T03:03:42;14.30;99.90
4904;DHT22;2467;48.142;11.616;2023-05-10T03:04:15;14.30;99.90
4904;DHT22;2467;48.142;11.616;2023-05-10T03:04:47;14.30;99.90
4904;DHT22;2467;48.142;11.616;2023-05-10T03:05:19;14.20;99.90
4904;DHT22;2467;48.142;11.616;2023-05-10T03:05:52;14.20;99.90
4904;DHT22;2467;48.142;11.616;2023-05-10T03:06:27;14.20;99.90
4904;DHT22;2467;48.142;11.616;2023-05-10T03:07:00;14.20;99.90
4904;DHT22;2467;48.142;11.616;2023-05-10T03:07:33;14.20;99.90
4904;DHT22;2467;48.142;11.616;2023-05-10T03:08:05;14.20;99.90
4904;DHT22;2467;48.142;11.616;2023-05-10T03:08:37;14.20;99.90
4904;DHT22;2467;48.142;11.616;2023-05-10T03:09:11;14.20;99.90
4904;DHT22;2467;48.142;11.616;2023-05-10T03:09:44;14.10;99.90
4904;DHT22;2467;48.142;11.616;2023-05-10T03:10:16;14.20;99.90
4904;DHT22;2467;48.142;11.616;2023-05-10T03:11:01;14.10;99.90
4904;DHT22;2467;48.142;11.616;2023-05-10T03:11:50;14.10;99.90
4904;DHT22;2467;48.142;11.616;2023-05-10T03:12:33;14.10;99.90
4904;DHT22;2467;48.142;11.616;2023-05-10T03:13:16;14.10;99.90
4904;DHT22;2467;48.142;11.616;2023-05-10T03:13:56;14.10;99.90
4904;DHT22;2467;48.142;11.616;2023-05-10T03:14:44;14.10;99.90
4904;DHT22;2467;48.142;11.616;2023-05-10T03:15:22;14.00;99.90
4904;DHT22;2467;48.142;11.616;2023-05-10T03:15:59;14.10;99.90
4904;DHT22;2467;48.142;11.616;2023-05-10T03:16:39;14.00;99.90
4904;DHT22;2467;48.142;11.616;2023-05-10T03:17:22;14.00;99.90
4904;DHT22;2467;48.142;11.616;2023-05-10T03:17:57;14.00;99.90
4904;DHT22;2467;48.142;11.616;2023-05-10T03:18:40;14.00;99.90
4904;DHT22;2467;48.142;11.616;2023-05-10T03:19:17;14.00;99.90
4904;DHT22;2467;48.142;11.616;2023-05-10T03:19:55;14.00;99.90
4904;DHT22;2467;48.142;11.616;2023-05-10T03:20:31;13.90;99.90
4904;DHT22;2467;48.142;11.616;2023-05-10T03:21:05;13.90;99.90
4904;DHT22;2467;48.142;11.616;2023-05-10T03:21:41;13.90;99.90
4904;DHT22;2467;48.142;11.616;2023-05-10T03:22:23;13.90;99.90
4904;DHT22;2467;48.142;11.616;2023-05-10T03:23:02;13.90;99.90
4904;DHT22;2467;48.142;11.616;2023-05-10T03:23:35;13.90;99.90
4904;DHT22;2467;48.142;11.616;2023-05-10T03:24:13;13.90;99.90
4904;DHT22;2467;48.142;11.616;2023-05-10T03:24:48;13.90;99.90
4904;DHT22;2467;48.142;11.616;2023-05-10T03:25:21;13.90;99.90
4904;DHT22;2467;48.142;11.616;2023-05-10T03:25:54;13.90;99.90
4904;DHT22;2467;48.142;11.616;2023-05-10T03:26:28;13.90;99.90
4904;DHT22;2467;48.142;11.616;2023-05-10T03:27:01;13.90;99.90
4904;DHT22;2467;48.142;11.616;2023-05-10T03:27:36;13.90;99.90
4904;DHT22;2467;48.142;11.616;2023-05-10T03:28:12;13.90;99.90
4904;DHT22;2467;48.142;11.616;2023-05-10T03:28:45;13.90;99.90
4904;DHT22;2467;48.142;11.616;2023-05-10T03:29:20;13.90;99.90
4904;DHT22;2467;48.142;11.616;2023-05-10T03:29:55;13.90;99.90
4904;DHT22;2467;48.142;11.616;2023-05-10T03:30:28;13.90;99.90
4904;DHT22;2467;48.142;11.616;2023-05-10T03:31:00;13.90;99.90
4904;DHT22;2467;48.142;11.616;2023-05-10T03:31:34;13.90;99.90
4904;DHT22;2467;48.142;11.616;2023-05-10T03:32:08;14.00;99.90
4904;DHT22;2467;48.142;11.616;2023-05-10T03:32:40;13.90;99.90
4904;DHT22;2467;48.142;11.616;2023-05-10T03:33:13;13.90;99.90
4904;DHT22;2467;48.142;11.616;2023-05-10T03:33:46;13.90;99.90
4904;DHT22;2467;48.142;11.616;2023-05-10T03:34:24;13.90;99.90
4904;DHT22;2467;48.142;11.616;2023-05-10T03:34:57;13.90;99.90
4904;DHT22;2467;48.142;11.616;2023-05-10T03:35:29;13.90;99.90
4904;DHT22;2467;48.142;11.616;2023-05-10T03:36:01;13.90;99.90
4904;DHT22;2467;48.142;11.616;2023-05-10T03:36:34;13.90;99.90
4904;DHT22;2467;48.142;11.616;2023-05-10T03:37:07;13.90;99.90
4904;DHT22;2467;48.142;11.616;2023-05-10T03:37:39;13.90;99.90
4904;DHT22;2467;48.142;11.616;2023-05-10T03:38:11;13.90;99.90
4904;DHT22;2467;48.142;11.616;2023-05-10T03:38:44;13.90;99.90
4904;DHT22;2467;48.142;11.616;2023-05-10T03:39:16;13.90;99.90
4904;DHT22;2467;48.142;11.616;2023-05-10T03:39:48;13.90;99.90
4904;DHT22;2467;48.142;11.616;2023-05-10T03:40:21;13.90;99.90
4904;DHT22;2467;48.142;11.616;2023-05-10T03:40:52;13.90;99.90
4904;DHT22;2467;48.142;11.616;2023-05-10T03:41:24;13.90;99.90
4904;DHT22;2467;48.142;11.616;2023-05-10T03:41:57;14.00;99.90
4904;DHT22;2467;48.142;11.616;2023-05-10T03:42:29;13.90;99.90
4904;DHT22;2467;48.142;11.616;2023-05-10T03:43:01;13.90;99.90
4904;DHT22;2467;48.142;11.616;2023-05-10T03:43:34;13.90;99.90
4904;DHT22;2467;48.142;11.616;2023-05-10T03:44:06;13.90;99.90